createdAt,value
2022-09-10T00:02:16.553Z,2.58
2022-09-10T00:07:19.302Z,2.35
2022-09-10T00:12:21.453Z,1.20
2022-09-10T00:17:24.440Z,0.88
2022-09-10T00:22:26.622Z,2.75
2022-09-10T00:27:28.800Z,4.90
2022-09-10T00:32:31.675Z,1.13
2022-09-10T00:37:33.897Z,5.85
2022-09-10T00:42:36.154Z,5.40
2022-09-10T00:47:39.676Z,6.32
2022-09-10T00:52:43.286Z,3.50
2022-09-10T01:07:50.134Z,3.60
2022-09-10T01:13:17.911Z,1.30
2022-09-10T01:18:39.889Z,1.73
2022-09-10T01:24:01.107Z,2.05
2022-09-10T01:29:05.577Z,0.80
2022-09-10T01:34:13.100Z,1.52
2022-09-10T01:39:20.017Z,2.05
2022-09-10T01:44:49.729Z,2.28
2022-09-10T01:50:27.178Z,1.70
2022-09-10T01:55:48.664Z,1.90
2022-09-10T02:01:08.467Z,2.53
2022-09-10T02:06:13.256Z,1.70
2022-09-10T02:11:16.579Z,1.10
2022-09-10T02:16:34.075Z,3.33
2022-09-10T02:21:37.656Z,2.90
2022-09-10T02:26:42.345Z,2.78
2022-09-10T02:31:44.330Z,4.28
2022-09-10T02:36:49.052Z,4.03
2022-09-10T02:41:50.947Z,1.58
2022-09-10T02:46:53.381Z,1.70
2022-09-10T02:51:55.398Z,2.45
2022-09-10T02:56:58.949Z,2.00
2022-09-10T03:02:00.891Z,1.63
2022-09-10T03:07:02.857Z,1.85
2022-09-10T03:12:05.571Z,3.70
2022-09-10T03:17:08.330Z,1.48
2022-09-10T03:22:11.515Z,3.42
2022-09-10T03:27:16.451Z,5.53
2022-09-10T03:32:18.901Z,2.95
2022-09-10T03:37:24.256Z,3.40
2022-09-10T03:42:27.348Z,1.58
2022-09-10T03:47:29.231Z,1.70
2022-09-10T03:52:31.304Z,3.80
2022-09-10T03:57:33.766Z,7.13
2022-09-10T04:02:35.910Z,7.75
2022-09-10T04:07:38.554Z,9.57
2022-09-10T04:12:40.666Z,7.63
2022-09-10T04:17:42.900Z,9.68
2022-09-10T04:22:45.502Z,2.78
2022-09-10T04:27:47.781Z,2.60
2022-09-10T04:32:50.550Z,1.50
2022-09-10T04:37:52.790Z,1.23
2022-09-10T04:42:55.662Z,2.00
2022-09-10T04:47:57.740Z,2.53
2022-09-10T04:53:00.568Z,1.63
2022-09-10T04:58:02.643Z,1.88
2022-09-10T05:03:06.072Z,1.23
2022-09-10T05:13:10.963Z,2.13
2022-09-10T05:18:13.255Z,3.00
2022-09-10T05:23:15.834Z,3.33
2022-09-10T05:28:18.360Z,3.00
2022-09-10T05:33:20.422Z,2.47
2022-09-10T05:38:24.174Z,2.15
2022-09-10T05:43:27.784Z,2.38
2022-09-10T05:48:36.747Z,2.45
2022-09-10T05:53:44.372Z,2.90
2022-09-10T05:58:46.766Z,3.38
2022-09-10T06:03:51.202Z,1.77
2022-09-10T06:08:53.636Z,2.60
2022-09-10T06:14:11.402Z,2.28
2022-09-10T06:19:14.951Z,1.13
2022-09-10T06:24:17.064Z,3.15
2022-09-10T06:29:20.157Z,5.18
2022-09-10T06:34:23.064Z,3.47
2022-09-10T06:39:28.472Z,3.22
2022-09-10T06:44:33.973Z,4.57
2022-09-10T06:49:47.482Z,3.53
2022-09-10T06:54:51.794Z,1.75
2022-09-10T07:00:04.051Z,4.68
2022-09-10T07:05:06.606Z,3.65
2022-09-10T07:10:09.902Z,8.95
2022-09-10T07:15:13.640Z,4.55
2022-09-10T07:20:15.810Z,2.30
2022-09-10T07:25:24.131Z,3.00
2022-09-10T07:30:32.101Z,2.70
2022-09-10T07:35:36.459Z,3.33
2022-09-10T07:40:40.890Z,2.07
2022-09-10T07:45:43.111Z,6.75
2022-09-10T07:50:45.697Z,2.95
2022-09-10T07:55:59.134Z,4.80
2022-09-10T08:01:09.421Z,7.10
2022-09-10T08:06:12.101Z,3.17
2022-09-10T08:11:17.478Z,1.50
2022-09-10T08:16:24.076Z,7.28
2022-09-10T08:21:30.351Z,2.08
2022-09-10T08:26:34.627Z,3.05
2022-09-10T08:31:39.706Z,2.53
2022-09-10T08:36:53.210Z,4.68
2022-09-10T08:41:59.802Z,2.20
2022-09-10T08:47:20.028Z,3.70
2022-09-10T08:52:34.146Z,8.10
2022-09-10T08:57:45.497Z,3.85
2022-09-10T09:03:11.295Z,1.17
2022-09-10T09:08:22.082Z,2.40
2022-09-10T09:13:32.304Z,3.60
2022-09-10T09:18:55.187Z,3.30
2022-09-10T09:24:14.218Z,2.80
2022-09-10T09:29:35.670Z,5.30
2022-09-10T09:35:07.451Z,4.10
2022-09-10T09:40:29.001Z,3.17
2022-09-10T09:45:37.668Z,3.08
2022-09-10T09:50:42.611Z,5.22
2022-09-10T09:55:48.929Z,3.45
2022-09-10T10:01:17.621Z,4.05
2022-09-10T10:06:41.930Z,3.63
2022-09-10T10:11:56.050Z,6.18
2022-09-10T10:17:01.020Z,3.38
2022-09-10T10:22:17.158Z,4.25
2022-09-10T10:27:32.886Z,3.40
2022-09-10T10:32:44.727Z,4.05
2022-09-10T10:38:25.557Z,2.78
2022-09-10T10:44:06.498Z,4.78
2022-09-10T10:49:43.868Z,4.35
2022-09-10T12:46:07.455Z,27.10
2022-09-10T17:22:07.128Z,0.82
2022-09-10T17:27:09.281Z,1.38
2022-09-10T18:43:46.560Z,4.00
2022-09-10T18:48:48.552Z,3.50
2022-09-10T18:54:00.020Z,2.00
2022-09-10T18:59:10.090Z,1.80
2022-09-10T19:04:15.492Z,3.17
2022-09-10T19:09:23.123Z,13.20
2022-09-10T19:14:30.962Z,11.32
2022-09-10T19:19:34.999Z,9.45
2022-09-10T19:24:54.021Z,9.50
2022-09-10T19:29:58.382Z,6.40
2022-09-10T19:35:01.348Z,4.70
2022-09-10T19:40:03.465Z,5.50
2022-09-10T19:45:09.955Z,4.85
2022-09-10T19:50:12.288Z,7.20
2022-09-10T19:55:14.261Z,6.07
2022-09-10T20:00:43.110Z,6.43
2022-09-10T20:05:39.357Z,7.07
2022-09-10T20:10:49.358Z,14.23
2022-09-10T20:15:51.459Z,35.70
2022-09-10T20:20:53.958Z,48.33
2022-09-10T20:25:56.293Z,20.95
2022-09-10T20:30:58.510Z,11.55
2022-09-10T20:36:01.156Z,8.35
2022-09-10T20:41:03.664Z,5.00
2022-09-10T20:46:06.737Z,3.47
2022-09-10T20:51:09.593Z,2.95
2022-09-10T20:56:15.369Z,2.88
2022-09-10T21:01:19.217Z,32.95
2022-09-10T21:06:25.006Z,35.50
2022-09-10T21:11:29.015Z,21.30
2022-09-10T21:16:33.427Z,7.55
2022-09-10T21:21:36.218Z,8.65
2022-09-10T21:26:39.687Z,6.80
2022-09-10T21:31:41.887Z,4.75
2022-09-10T21:36:44.268Z,4.15
2022-09-10T21:41:48.761Z,7.93
2022-09-10T21:46:51.850Z,3.85
2022-09-10T21:51:53.773Z,4.40
2022-09-10T21:56:58.318Z,3.78
2022-09-10T22:02:00.764Z,4.10
2022-09-10T22:07:04.768Z,9.48
2022-09-10T22:12:06.782Z,4.47
2022-09-10T22:17:08.724Z,10.60
2022-09-10T22:22:12.119Z,24.40
2022-09-10T22:27:14.174Z,5.03
2022-09-10T22:32:16.122Z,6.85
2022-09-10T22:37:18.067Z,3.78
2022-09-10T22:42:21.210Z,6.13
2022-09-10T22:47:23.238Z,6.03
2022-09-10T22:52:25.227Z,3.90
2022-09-10T22:57:29.528Z,4.90
2022-09-10T23:02:31.853Z,6.45
2022-09-10T23:07:34.126Z,7.07
2022-09-10T23:12:36.365Z,5.18
2022-09-10T23:17:38.638Z,4.28
2022-09-10T23:22:40.744Z,4.53
2022-09-10T23:27:42.658Z,5.90
2022-09-10T23:32:45.274Z,5.63
2022-09-10T23:37:47.520Z,5.93
2022-09-10T23:42:49.300Z,5.40
2022-09-10T23:47:52.738Z,8.98
2022-09-10T23:52:55.304Z,6.38
2022-09-10T23:57:57.960Z,6.63
